sensor_id;sensor_type;location;lat;lon;timestamp;pressure;altitude;pressure_sealevel;temperature;humidity
71299;BME280;59083;47.974;21.722;2022-12-24T00:00:16;99982.28;;;5.51;100.00
71299;BME280;59083;47.974;21.722;2022-12-24T00:03:18;99968.09;;;5.52;100.00
71299;BME280;59083;47.974;21.722;2022-12-24T00:06:22;99960.50;;;5.57;100.00
71299;BME280;59083;47.974;21.722;2022-12-24T00:09:23;99964.13;;;5.56;100.00
71299;BME280;59083;47.974;21.722;2022-12-24T00:12:24;99949.59;;;5.52;100.00
71299;BME280;59083;47.974;21.722;2022-12-24T00:15:26;99954.53;;;5.55;100.00
71299;BME280;59083;47.974;21.722;2022-12-24T00:18:27;99964.78;;;5.58;100.00
71299;BME280;59083;47.974;21.722;2022-12-24T00:21:28;99951.91;;;5.55;100.00
71299;BME280;59083;47.974;21.722;2022-12-24T00:24:29;99943.28;;;5.53;100.00
71299;BME280;59083;47.974;21.722;2022-12-24T00:27:31;99941.16;;;5.56;100.00
71299;BME280;59083;47.974;21.722;2022-12-24T00:30:32;99937.53;;;5.57;100.00
71299;BME280;59083;47.974;21.722;2022-12-24T00:33:33;99954.87;;;5.60;100.00
71299;BME280;59083;47.974;21.722;2022-12-24T00:36:34;99948.75;;;5.59;100.00
71299;BME280;59083;47.974;21.722;2022-12-24T00:39:36;99952.38;;;5.58;100.00
71299;BME280;59083;47.974;21.722;2022-12-24T00:42:37;99951.06;;;5.62;100.00
71299;BME280;59083;47.974;21.722;2022-12-24T00:45:38;99952.88;;;5.62;100.00
71299;BME280;59083;47.974;21.722;2022-12-24T00:48:39;99945.78;;;5.62;100.00
71299;BME280;59083;47.974;21.722;2022-12-24T00:51:40;99945.63;;;5.64;100.00
71299;BME280;59083;47.974;21.722;2022-12-24T00:54:41;99937.50;;;5.65;100.00
71299;BME280;59083;47.974;21.722;2022-12-24T00:57:43;99933.06;;;5.66;100.00
71299;BME280;59083;47.974;21.722;2022-12-24T01:00:44;99933.06;;;5.66;100.00
71299;BME280;59083;47.974;21.722;2022-12-24T01:03:46;99935.69;;;5.66;100.00
71299;BME280;59083;47.974;21.722;2022-12-24T01:06:47;99932.41;;;5.64;100.00
71299;BME280;59083;47.974;21.722;2022-12-24T01:09:48;99930.56;;;5.64;100.00
71299;BME280;59083;47.974;21.722;2022-12-24T01:12:49;99931.41;;;5.65;100.00
71299;BME280;59083;47.974;21.722;2022-12-24T01:15:51;99927.59;;;5.67;100.00
71299;BME280;59083;47.974;21.722;2022-12-24T01:18:52;99917.19;;;5.66;100.00
71299;BME280;59083;47.974;21.722;2022-12-24T01:21:53;99909.25;;;5.66;100.00
71299;BME280;59083;47.974;21.722;2022-12-24T01:24:54;99901.34;;;5.66;100.00
71299;BME280;59083;47.974;21.722;2022-12-24T01:27:56;99912.25;;;5.63;100.00
71299;BME280;59083;47.974;21.722;2022-12-24T01:30:57;99927.28;;;5.62;100.00
71299;BME280;59083;47.974;21.722;2022-12-24T01:33:58;99931.75;;;5.62;100.00
71299;BME280;59083;47.974;21.722;2022-12-24T01:36:59;99934.38;;;5.62;100.00
71299;BME280;59083;47.974;21.722;2022-12-24T01:40:01;99943.47;;;5.59;100.00
71299;BME280;59083;47.974;21.722;2022-12-24T01:43:21;99929.44;;;5.51;100.00
71299;BME280;59083;47.974;21.722;2022-12-24T01:46:30;99934.38;;;5.54;100.00
71299;BME280;59083;47.974;21.722;2022-12-24T01:49:32;99934.22;;;5.55;100.00
71299;BME280;59083;47.974;21.722;2022-12-24T01:52:34;99928.62;;;5.50;100.00
71299;BME280;59083;47.974;21.722;2022-12-24T01:55:36;99921.84;;;5.56;100.00
71299;BME280;59083;47.974;21.722;2022-12-24T01:58:39;99925.31;;;5.56;100.00
71299;BME280;59083;47.974;21.722;2022-12-24T02:01:41;99918.69;;;5.60;100.00
71299;BME280;59083;47.974;21.722;2022-12-24T02:08:09;99905.00;;;5.57;100.00
71299;BME280;59083;47.974;21.722;2022-12-24T02:11:19;99909.63;;;5.55;100.00
71299;BME280;59083;47.974;21.722;2022-12-24T02:14:27;99904.66;;;5.52;100.00
71299;BME280;59083;47.974;21.722;2022-12-24T02:21:11;99904.16;;;5.48;100.00
71299;BME280;59083;47.974;21.722;2022-12-24T02:27:41;99892.44;;;5.51;100.00
71299;BME280;59083;47.974;21.722;2022-12-24T02:30:47;99896.22;;;5.48;100.00
71299;BME280;59083;47.974;21.722;2022-12-24T02:33:59;99875.28;;;5.47;100.00
71299;BME280;59083;47.974;21.722;2022-12-24T02:37:08;99873.63;;;5.46;100.00
71299;BME280;59083;47.974;21.722;2022-12-24T02:40:25;99876.09;;;5.47;100.00
71299;BME280;59083;47.974;21.722;2022-12-24T02:43:33;99875.59;;;5.44;100.00
71299;BME280;59083;47.974;21.722;2022-12-24T02:46:35;99875.59;;;5.44;100.00
71299;BME280;59083;47.974;21.722;2022-12-24T02:49:37;99866.34;;;5.48;100.00
71299;BME280;59083;47.974;21.722;2022-12-24T02:52:41;99868.16;;;5.47;100.00
71299;BME280;59083;47.974;21.722;2022-12-24T02:55:56;99854.16;;;5.47;100.00
71299;BME280;59083;47.974;21.722;2022-12-24T03:06:12;99844.88;;;5.51;100.00
71299;BME280;59083;47.974;21.722;2022-12-24T03:09:27;99845.19;;;5.56;100.00
71299;BME280;59083;47.974;21.722;2022-12-24T03:12:43;99838.94;;;5.57;100.00
71299;BME280;59083;47.974;21.722;2022-12-24T03:15:46;99836.91;;;5.59;100.00
71299;BME280;59083;47.974;21.722;2022-12-24T03:18:49;99857.75;;;5.62;100.00
71299;BME280;59083;47.974;21.722;2022-12-24T03:21:53;99850.81;;;5.61;100.00
71299;BME280;59083;47.974;21.722;2022-12-24T03:24:56;99844.69;;;5.60;100.00
71299;BME280;59083;47.974;21.722;2022-12-24T03:28:01;99837.06;;;5.65;100.00
71299;BME280;59083;47.974;21.722;2022-12-24T03:31:04;99828.97;;;5.67;100.00
71299;BME280;59083;47.974;21.722;2022-12-24T03:34:05;99825.00;;;5.71;100.00
71299;BME280;59083;47.974;21.722;2022-12-24T03:37:06;99813.28;;;5.73;100.00
71299;BME280;59083;47.974;21.722;2022-12-24T03:40:08;99822.03;;;5.74;100.00
71299;BME280;59083;47.974;21.722;2022-12-24T03:43:09;99803.34;;;5.75;100.00
71299;BME280;59083;47.974;21.722;2022-12-24T03:46:11;99794.25;;;5.78;100.00
71299;BME280;59083;47.974;21.722;2022-12-24T03:49:12;99799.19;;;5.81;100.00
71299;BME280;59083;47.974;21.722;2022-12-24T03:52:13;99798.84;;;5.84;100.00
71299;BME280;59083;47.974;21.722;2022-12-24T03:55:14;99791.91;;;5.83;100.00
71299;BME280;59083;47.974;21.722;2022-12-24T03:58:15;99779.19;;;5.87;100.00
71299;BME280;59083;47.974;21.722;2022-12-24T04:01:17;99774.56;;;5.89;100.00
71299;BME280;59083;47.974;21.722;2022-12-24T04:04:18;99770.09;;;5.89;100.00
71299;BME280;59083;47.974;21.722;2022-12-24T04:07:19;99770.09;;;5.89;100.00
71299;BME280;59083;47.974;21.722;2022-12-24T04:10:20;99764.97;;;5.88;100.00
71299;BME280;59083;47.974;21.722;2022-12-24T04:13:22;99767.28;;;5.91;100.00
71299;BME280;59083;47.974;21.722;2022-12-24T04:16:23;99754.25;;;5.89;100.00
71299;BME280;59083;47.974;21.722;2022-12-24T04:19:24;99754.25;;;5.89;100.00
71299;BME280;59083;47.974;21.722;2022-12-24T04:22:26;99750.59;;;5.90;100.00
71299;BME280;59083;47.974;21.722;2022-12-24T04:25:27;99747.44;;;5.95;100.00
71299;BME280;59083;47.974;21.722;2022-12-24T04:28:29;99750.25;;;5.93;100.00
71299;BME280;59083;47.974;21.722;2022-12-24T04:31:30;99750.91;;;5.95;100.00
71299;BME280;59083;47.974;21.722;2022-12-24T04:34:32;99739.50;;;5.95;100.00
71299;BME280;59083;47.974;21.722;2022-12-24T04:37:33;99739.97;;;5.98;100.00
71299;BME280;59083;47.974;21.722;2022-12-24T04:40:35;99740.63;;;6.00;100.00
71299;BME280;59083;47.974;21.722;2022-12-24T04:43:36;99737.66;;;6.03;100.00
71299;BME280;59083;47.974;21.722;2022-12-24T04:46:37;99733.34;;;6.02;100.00
71299;BME280;59083;47.974;21.722;2022-12-24T04:49:39;99731.34;;;6.04;100.00
71299;BME280;59083;47.974;21.722;2022-12-24T04:52:40;99745.22;;;6.06;100.00
71299;BME280;59083;47.974;21.722;2022-12-24T04:55:45;99738.12;;;6.07;100.00
71299;BME280;59083;47.974;21.722;2022-12-24T04:58:47;99733.94;;;6.12;100.00
71299;BME280;59083;47.974;21.722;2022-12-24T05:01:48;99720.69;;;6.20;100.00
71299;BME280;59083;47.974;21.722;2022-12-24T05:04:49;99731.28;;;6.20;100.00
71299;BME280;59083;47.974;21.722;2022-12-24T05:07:50;99718.34;;;6.26;100.00
71299;BME280;59083;47.974;21.722;2022-12-24T05:10:56;99716.97;;;6.30;100.00
71299;BME280;59083;47.974;21.722;2022-12-24T05:13:58;99716.44;;;6.34;100.00
71299;BME280;59083;47.974;21.722;2022-12-24T05:16:59;99734.44;;;6.39;100.00
71299;BME280;59083;47.974;21.722;2022-12-24T05:20:00;99750.31;;;6.39;100.00
71299;BME280;59083;47.974;21.722;2022-12-24T05:23:02;99749.13;;;6.41;100.00
71299;BME280;59083;47.974;21.722;2022-12-24T05:29:38;99737.69;;;6.49;100.00
71299;BME280;59083;47.974;21.722;2022-12-24T05:32:39;99728.53;;;6.51;100.00
71299;BME280;59083;47.974;21.722;2022-12-24T05:35:40;99743.59;;;6.51;100.00
71299;BME280;59083;47.974;21.722;2022-12-24T05:38:42;99733.38;;;6.48;100.00
71299;BME280;59083;47.974;21.722;2022-12-24T05:41:44;99747.63;;;6.47;100.00
71299;BME280;59083;47.974;21.722;2022-12-24T05:44:45;99750.59;;;6.44;100.00
71299;BME280;59083;47.974;21.722;2022-12-24T05:47:46;99751.63;;;6.43;100.00
71299;BME280;59083;47.974;21.722;2022-12-24T05:50:47;99754.44;;;6.41;100.00
71299;BME280;59083;47.974;21.722;2022-12-24T05:53:50;99760.56;;;6.42;100.00
71299;BME280;59083;47.974;21.722;2022-12-24T05:56:51;99753.97;;;6.38;100.00
71299;BME280;59083;47.974;21.722;2022-12-24T05:59:52;99762.53;;;6.40;100.00
71299;BME280;59083;47.974;21.722;2022-12-24T06:02:54;99767.84;;;6.40;100.00
71299;BME280;59083;47.974;21.722;2022-12-24T06:06:04;99785.38;;;6.41;100.00
71299;BME280;59083;47.974;21.722;2022-12-24T06:09:05;99786.53;;;6.38;100.00
71299;BME280;59083;47.974;21.722;2022-12-24T06:12:07;99797.94;;;6.39;100.00
71299;BME280;59083;47.974;21.722;2022-12-24T06:15:08;99789.00;;;6.40;100.00
71299;BME280;59083;47.974;21.722;2022-12-24T06:18:09;99795.13;;;6.40;100.00
71299;BME280;59083;47.974;21.722;2022-12-24T06:21:11;99801.25;;;6.41;100.00
71299;BME280;59083;47.974;21.722;2022-12-24T06:24:13;99797.59;;;6.42;100.00
71299;BME280;59083;47.974;21.722;2022-12-24T06:27:14;99814.19;;;6.36;100.00
71299;BME280;59083;47.974;21.722;2022-12-24T06:30:15;99815.12;;;6.43;100.00
71299;BME280;59083;47.974;21.722;2022-12-24T06:33:18;99811.00;;;6.40;100.00
71299;BME280;59083;47.974;21.722;2022-12-24T06:36:22;99817.13;;;6.41;100.00
71299;BME280;59083;47.974;21.722;2022-12-24T06:39:23;99818.47;;;6.37;100.00
71299;BME280;59083;47.974;21.722;2022-12-24T06:42:25;99814.50;;;6.33;100.00
71299;BME280;59083;47.974;21.722;2022-12-24T06:45:26;99799.97;;;6.29;100.00
71299;BME280;59083;47.974;21.722;2022-12-24T06:48:28;99812.75;;;6.25;100.00
71299;BME280;59083;47.974;21.722;2022-12-24T06:51:29;99809.28;;;6.25;100.00
71299;BME280;59083;47.974;21.722;2022-12-24T06:54:30;99806.28;;;6.28;100.00
71299;BME280;59083;47.974;21.722;2022-12-24T06:57:31;99805.44;;;6.27;100.00
71299;BME280;59083;47.974;21.722;2022-12-24T07:00:33;99815.56;;;6.23;100.00
71299;BME280;59083;47.974;21.722;2022-12-24T07:03:34;99833.41;;;6.21;100.00
71299;BME280;59083;47.974;21.722;2022-12-24T07:06:35;99843.38;;;6.19;100.00
71299;BME280;59083;47.974;21.722;2022-12-24T07:09:36;99862.22;;;6.16;100.00
71299;BME280;59083;47.974;21.722;2022-12-24T07:12:38;99865.16;;;6.21;100.00
71299;BME280;59083;47.974;21.722;2022-12-24T07:15:39;99870.16;;;6.16;100.00
71299;BME280;59083;47.974;21.722;2022-12-24T07:18:40;99881.72;;;6.15;100.00
71299;BME280;59083;47.974;21.722;2022-12-24T07:21:41;99885.03;;;6.17;100.00
71299;BME280;59083;47.974;21.722;2022-12-24T07:24:43;99859.44;;;6.10;100.00
71299;BME280;59083;47.974;21.722;2022-12-24T07:27:44;99874.50;;;6.01;100.00
71299;BME280;59083;47.974;21.722;2022-12-24T07:30:46;99874.03;;;5.98;100.00
71299;BME280;59083;47.974;21.722;2022-12-24T07:33:48;99883.12;;;6.03;100.00
71299;BME280;59083;47.974;21.722;2022-12-24T07:36:49;99864.25;;;5.98;100.00
71299;BME280;59083;47.974;21.722;2022-12-24T07:39:50;99860.81;;;5.98;100.00
71299;BME280;59083;47.974;21.722;2022-12-24T07:42:51;99864.25;;;5.98;100.00
71299;BME280;59083;47.974;21.722;2022-12-24T07:45:56;99857.34;;;5.97;100.00
71299;BME280;59083;47.974;21.722;2022-12-24T07:48:57;99865.09;;;5.99;100.00
71299;BME280;59083;47.974;21.722;2022-12-24T07:51:59;99871.06;;;5.93;100.00
71299;BME280;59083;47.974;21.722;2022-12-24T07:55:00;99877.19;;;5.85;100.00
71299;BME280;59083;47.974;21.722;2022-12-24T07:58:01;99862.97;;;5.94;100.00
71299;BME280;59083;47.974;21.722;2022-12-24T08:01:02;99875.56;;;5.92;100.00
71299;BME280;59083;47.974;21.722;2022-12-24T08:04:04;99874.22;;;5.96;100.00
71299;BME280;59083;47.974;21.722;2022-12-24T08:07:06;99902.00;;;5.92;100.00
71299;BME280;59083;47.974;21.722;2022-12-24T08:10:08;99899.31;;;5.84;100.00
71299;BME280;59083;47.974;21.722;2022-12-24T08:13:09;99915.19;;;5.84;100.00
71299;BME280;59083;47.974;21.722;2022-12-24T08:16:10;99910.22;;;5.81;100.00
71299;BME280;59083;47.974;21.722;2022-12-24T08:19:11;99921.31;;;5.76;100.00
71299;BME280;59083;47.974;21.722;2022-12-24T08:22:14;99914.88;;;5.79;100.00
71299;BME280;59083;47.974;21.722;2022-12-24T08:25:15;99913.38;;;5.76;100.00
71299;BME280;59083;47.974;21.722;2022-12-24T08:28:19;99917.50;;;5.79;100.00
71299;BME280;59083;47.974;21.722;2022-12-24T08:31:20;99923.78;;;5.70;100.00
71299;BME280;59083;47.974;21.722;2022-12-24T08:34:21;99927.09;;;5.72;100.00
71299;BME280;59083;47.974;21.722;2022-12-24T08:37:23;99921.16;;;5.78;100.00
71299;BME280;59083;47.974;21.722;2022-12-24T08:40:24;99917.50;;;5.79;100.00
71299;BME280;59083;47.974;21.722;2022-12-24T08:43:26;99920.47;;;5.84;100.00
71299;BME280;59083;47.974;21.722;2022-12-24T08:46:27;99928.72;;;5.81;100.00
71299;BME280;59083;47.974;21.722;2022-12-24T08:49:28;99927.09;;;5.88;100.00
71299;BME280;59083;47.974;21.722;2022-12-24T08:52:30;99941.97;;;5.89;100.00
71299;BME280;59083;47.974;21.722;2022-12-24T08:55:31;99944.62;;;5.89;100.00
71299;BME280;59083;47.974;21.722;2022-12-24T08:58:32;99945.94;;;5.77;100.00
71299;BME280;59083;47.974;21.722;2022-12-24T09:01:33;99951.88;;;5.87;100.00
71299;BME280;59083;47.974;21.722;2022-12-24T09:04:39;99946.91;;;5.84;100.00
71299;BME280;59083;47.974;21.722;2022-12-24T09:07:40;99961.13;;;5.99;100.00
71299;BME280;59083;47.974;21.722;2022-12-24T09:10:42;99957.16;;;5.95;100.00
71299;BME280;59083;47.974;21.722;2022-12-24T09:13:43;99950.38;;;6.09;100.00
71299;BME280;59083;47.974;21.722;2022-12-24T09:16:44;99947.69;;;6.17;100.00
71299;BME280;59083;47.974;21.722;2022-12-24T09:19:46;99959.25;;;6.24;100.00
71299;BME280;59083;47.974;21.722;2022-12-24T09:22:47;99966.84;;;6.27;100.00
71299;BME280;59083;47.974;21.722;2022-12-24T09:25:49;99975.97;;;6.25;100.00
71299;BME280;59083;47.974;21.722;2022-12-24T09:28:51;99984.53;;;6.35;100.00
71299;BME280;59083;47.974;21.722;2022-12-24T09:31:53;99981.88;;;6.35;100.00
71299;BME280;59083;47.974;21.722;2022-12-24T09:34:55;99994.44;;;6.33;100.00
71299;BME280;59083;47.974;21.722;2022-12-24T09:37:56;99994.97;;;6.28;100.00
71299;BME280;59083;47.974;21.722;2022-12-24T09:47:46;100004.31;;;6.55;100.00
71299;BME280;59083;47.974;21.722;2022-12-24T09:50:58;100008.91;;;6.61;100.00
71299;BME280;59083;47.974;21.722;2022-12-24T09:54:06;100021.16;;;6.62;100.00
71299;BME280;59083;47.974;21.722;2022-12-24T09:57:24;100020.78;;;6.73;100.00
71299;BME280;59083;47.974;21.722;2022-12-24T10:00:30;100026.75;;;6.75;100.00
71299;BME280;59083;47.974;21.722;2022-12-24T10:03:33;100026.56;;;6.77;100.00
71299;BME280;59083;47.974;21.722;2022-12-24T10:20:17;100022.66;;;7.57;100.00
71299;BME280;59083;47.974;21.722;2022-12-24T10:27:05;100026.63;;;7.53;100.00
71299;BME280;59083;47.974;21.722;2022-12-24T10:30:18;100040.28;;;7.42;100.00
71299;BME280;59083;47.974;21.722;2022-12-24T10:33:29;100039.69;;;7.32;100.00
71299;BME280;59083;47.974;21.722;2022-12-24T10:36:31;100038.59;;;7.18;100.00
71299;BME280;59083;47.974;21.722;2022-12-24T10:39:32;100020.28;;;7.39;100.00
71299;BME280;59083;47.974;21.722;2022-12-24T10:42:39;100023.56;;;7.41;100.00
71299;BME280;59083;47.974;21.722;2022-12-24T10:45:50;100025.31;;;7.57;100.00
71299;BME280;59083;47.974;21.722;2022-12-24T10:48:59;100021.19;;;7.69;100.00
71299;BME280;59083;47.974;21.722;2022-12-24T10:52:05;100019.63;;;7.98;100.00
71299;BME280;59083;47.974;21.722;2022-12-24T10:58:15;100024.81;;;7.76;100.00
71299;BME280;59083;47.974;21.722;2022-12-24T11:01:20;100030.78;;;7.56;100.00
71299;BME280;59083;47.974;21.722;2022-12-24T11:04:26;100034.78;;;7.52;100.00
71299;BME280;59083;47.974;21.722;2022-12-24T11:07:29;100038.19;;;7.37;100.00
71299;BME280;59083;47.974;21.722;2022-12-24T11:10:34;100031.34;;;7.43;100.00
71299;BME280;59083;47.974;21.722;2022-12-24T11:13:38;100035.00;;;7.42;100.00
71299;BME280;59083;47.974;21.722;2022-12-24T11:16:48;100029.75;;;7.34;100.00
71299;BME280;59083;47.974;21.722;2022-12-24T11:19:50;100024.38;;;7.42;100.00
71299;BME280;59083;47.974;21.722;2022-12-24T11:22:51;100040.28;;;7.42;100.00
71299;BME280;59083;47.974;21.722;2022-12-24T11:25:53;100036.66;;;7.43;100.00
71299;BME280;59083;47.974;21.722;2022-12-24T11:32:20;100031.38;;;7.35;100.00
71299;BME280;59083;47.974;21.722;2022-12-24T11:35:23;100028.09;;;7.33;100.00
71299;BME280;59083;47.974;21.722;2022-12-24T11:38:25;100020.88;;;7.19;100.00
71299;BME280;59083;47.974;21.722;2022-12-24T11:41:35;100027.97;;;7.26;100.00
71299;BME280;59083;47.974;21.722;2022-12-24T11:44:46;100030.25;;;7.29;100.00
71299;BME280;59083;47.974;21.722;2022-12-24T11:47:48;100028.97;;;7.25;100.00
71299;BME280;59083;47.974;21.722;2022-12-24T11:50:55;100024.88;;;7.23;100.00
71299;BME280;59083;47.974;21.722;2022-12-24T11:54:18;100025.84;;;7.22;100.00
71299;BME280;59083;47.974;21.722;2022-12-24T11:57:23;100031.31;;;7.20;100.00
71299;BME280;59083;47.974;21.722;2022-12-24T12:00:28;100034.81;;;7.21;100.00
71299;BME280;59083;47.974;21.722;2022-12-24T12:03:35;100038.94;;;7.23;100.00
71299;BME280;59083;47.974;21.722;2022-12-24T12:06:43;100044.03;;;7.25;100.00
71299;BME280;59083;47.974;21.722;2022-12-24T12:09:50;100057.00;;;7.20;100.00
71299;BME280;59083;47.974;21.722;2022-12-24T12:13:02;100059.81;;;7.18;100.00
71299;BME280;59083;47.974;21.722;2022-12-24T12:16:22;100069.56;;;7.18;100.00
71299;BME280;59083;47.974;21.722;2022-12-24T12:19:27;100078.56;;;7.17;100.00
71299;BME280;59083;47.974;21.722;2022-12-24T12:26:00;100088.50;;;7.06;100.00
71299;BME280;59083;47.974;21.722;2022-12-24T12:33:08;100096.16;;;7.01;100.00
71299;BME280;59083;47.974;21.722;2022-12-24T12:36:13;100093.56;;;6.93;100.00
71299;BME280;59083;47.974;21.722;2022-12-24T12:39:17;100098.50;;;6.96;100.00
71299;BME280;59083;47.974;21.722;2022-12-24T12:42:31;100100.81;;;6.91;100.00
71299;BME280;59083;47.974;21.722;2022-12-24T12:45:57;100105.47;;;6.89;100.00
71299;BME280;59083;47.974;21.722;2022-12-24T12:58:53;100118.75;;;6.73;100.00
71299;BME280;59083;47.974;21.722;2022-12-24T13:05:52;100111.16;;;6.70;100.00
71299;BME280;59083;47.974;21.722;2022-12-24T13:15:36;100106.84;;;6.69;100.00
71299;BME280;59083;47.974;21.722;2022-12-24T13:21:45;100113.47;;;6.73;100.00
71299;BME280;59083;47.974;21.722;2022-12-24T13:24:50;100118.44;;;6.68;100.00
71299;BME280;59083;47.974;21.722;2022-12-24T13:27:53;100114.47;;;6.56;100.00
71299;BME280;59083;47.974;21.722;2022-12-24T13:34:02;100120.81;;;6.31;100.00
71299;BME280;59083;47.974;21.722;2022-12-24T13:37:05;100118.31;;;6.21;100.00
71299;BME280;59083;47.974;21.722;2022-12-24T13:40:26;100119.81;;;6.15;100.00
71299;BME280;59083;47.974;21.722;2022-12-24T13:44:13;100129.41;;;6.08;100.00
71299;BME280;59083;47.974;21.722;2022-12-24T13:50:22;100134.19;;;6.05;100.00
71299;BME280;59083;47.974;21.722;2022-12-24T13:56:29;100130.91;;;6.03;100.00
71299;BME280;59083;47.974;21.722;2022-12-24T13:59:36;100124.78;;;6.02;100.00
71299;BME280;59083;47.974;21.722;2022-12-24T14:06:11;100142.97;;;6.13;100.00
71299;BME280;59083;47.974;21.722;2022-12-24T14:09:17;100147.59;;;6.19;100.00
71299;BME280;59083;47.974;21.722;2022-12-24T14:22:03;100160.50;;;6.39;100.00
71299;BME280;59083;47.974;21.722;2022-12-24T14:25:20;100151.25;;;6.35;100.00
71299;BME280;59083;47.974;21.722;2022-12-24T14:28:29;100158.66;;;6.39;100.00
71299;BME280;59083;47.974;21.722;2022-12-24T14:31:34;100157.00;;;6.38;100.00
71299;BME280;59083;47.974;21.722;2022-12-24T14:34:35;100165.44;;;6.34;100.00
71299;BME280;59083;47.974;21.722;2022-12-24T14:37:37;100179.19;;;6.29;100.00
71299;BME280;59083;47.974;21.722;2022-12-24T14:40:55;100187.28;;;6.28;100.00
71299;BME280;59083;47.974;21.722;2022-12-24T14:44:06;100185.97;;;6.23;100.00
71299;BME280;59083;47.974;21.722;2022-12-24T14:50:43;100202.19;;;6.20;100.00
71299;BME280;59083;47.974;21.722;2022-12-24T14:57:22;100200.50;;;6.11;100.00
71299;BME280;59083;47.974;21.722;2022-12-24T15:00:24;100211.09;;;6.03;100.00
71299;BME280;59083;47.974;21.722;2022-12-24T15:03:28;100203.78;;;5.97;100.00
71299;BME280;59083;47.974;21.722;2022-12-24T15:06:32;100221.59;;;5.87;100.00
71299;BME280;59083;47.974;21.722;2022-12-24T15:09:34;100218.75;;;5.80;100.00
71299;BME280;59083;47.974;21.722;2022-12-24T15:12:39;100222.88;;;5.75;100.00
71299;BME280;59083;47.974;21.722;2022-12-24T15:15:42;100236.09;;;5.75;100.00
71299;BME280;59083;47.974;21.722;2022-12-24T15:18:48;100237.37;;;5.71;100.00
71299;BME280;59083;47.974;21.722;2022-12-24T15:21:52;100239.38;;;5.69;100.00
71299;BME280;59083;47.974;21.722;2022-12-24T15:24:53;100256.69;;;5.63;100.00
71299;BME280;59083;47.974;21.722;2022-12-24T15:27:56;100260.44;;;5.53;100.00
71299;BME280;59083;47.974;21.722;2022-12-24T15:31:06;100270.97;;;5.45;100.00
71299;BME280;59083;47.974;21.722;2022-12-24T15:34:44;100279.09;;;5.51;100.00
71299;BME280;59083;47.974;21.722;2022-12-24T15:37:45;100264.09;;;5.52;100.00
71299;BME280;59083;47.974;21.722;2022-12-24T15:40:48;100286.56;;;5.56;100.00
71299;BME280;59083;47.974;21.722;2022-12-24T15:43:50;100268.75;;;5.58;100.00
71299;BME280;59083;47.974;21.722;2022-12-24T15:46:58;100274.03;;;5.58;100.00
71299;BME280;59083;47.974;21.722;2022-12-24T15:49:59;100274.81;;;5.50;100.00
71299;BME280;59083;47.974;21.722;2022-12-24T15:53:03;100295.75;;;5.44;100.00
71299;BME280;59083;47.974;21.722;2022-12-24T15:56:25;100290.38;;;5.35;100.00
71299;BME280;59083;47.974;21.722;2022-12-24T15:59:34;100291.34;;;5.26;100.00
71299;BME280;59083;47.974;21.722;2022-12-24T16:02:39;100291.31;;;5.18;100.00
71299;BME280;59083;47.974;21.722;2022-12-24T16:05:41;100286.78;;;5.11;100.00
71299;BME280;59083;47.974;21.722;2022-12-24T16:08:43;100293.50;;;5.05;100.00
71299;BME280;59083;47.974;21.722;2022-12-24T16:11:45;100286.56;;;5.04;100.00
71299;BME280;59083;47.974;21.722;2022-12-24T16:14:53;100291.16;;;5.02;100.00
71299;BME280;59083;47.974;21.722;2022-12-24T16:17:55;100292.94;;;4.93;100.00
71299;BME280;59083;47.974;21.722;2022-12-24T16:20:57;100296.41;;;4.94;100.00
71299;BME280;59083;47.974;21.722;2022-12-24T16:24:19;100294.06;;;4.91;100.00
71299;BME280;59083;47.974;21.722;2022-12-24T16:27:21;100298.69;;;4.89;100.00
71299;BME280;59083;47.974;21.722;2022-12-24T16:30:23;100303.88;;;4.81;100.00
71299;BME280;59083;47.974;21.722;2022-12-24T16:33:24;100301.84;;;4.75;100.00
71299;BME280;59083;47.974;21.722;2022-12-24T16:36:26;100307.72;;;4.69;100.00
71299;BME280;59083;47.974;21.722;2022-12-24T16:39:32;100318.87;;;4.63;100.00
71299;BME280;59083;47.974;21.722;2022-12-24T16:42:34;100313.22;;;4.57;100.00
71299;BME280;59083;47.974;21.722;2022-12-24T16:45:59;100315.41;;;4.44;100.00
71299;BME280;59083;47.974;21.722;2022-12-24T16:49:01;100315.13;;;4.47;100.00
71299;BME280;59083;47.974;21.722;2022-12-24T16:52:03;100326.28;;;4.41;100.00
71299;BME280;59083;47.974;21.722;2022-12-24T16:55:05;100331.53;;;4.41;100.00
71299;BME280;59083;47.974;21.722;2022-12-24T16:58:06;100331.53;;;4.41;100.00
71299;BME280;59083;47.974;21.722;2022-12-24T17:01:08;100329.88;;;4.40;100.00
71299;BME280;59083;47.974;21.722;2022-12-24T17:04:09;100335.47;;;4.37;100.00
71299;BME280;59083;47.974;21.722;2022-12-24T17:07:12;100342.69;;;4.35;100.00
71299;BME280;59083;47.974;21.722;2022-12-24T17:10:13;100339.09;;;4.36;100.00
71299;BME280;59083;47.974;21.722;2022-12-24T17:13:15;100333.28;;;4.33;100.00
71299;BME280;59083;47.974;21.722;2022-12-24T17:16:16;100339.66;;;4.30;100.00
71299;BME280;59083;47.974;21.722;2022-12-24T17:19:17;100359.41;;;4.26;100.00
71299;BME280;59083;47.974;21.722;2022-12-24T17:22:18;100359.69;;;4.23;100.00
71299;BME280;59083;47.974;21.722;2022-12-24T17:25:20;100350.81;;;4.24;100.00
71299;BME280;59083;47.974;21.722;2022-12-24T17:28:21;100354.97;;;4.27;100.00
71299;BME280;59083;47.974;21.722;2022-12-24T17:31:23;100357.75;;;4.25;100.00
71299;BME280;59083;47.974;21.722;2022-12-24T17:34:24;100369.66;;;4.29;100.00
71299;BME280;59083;47.974;21.722;2022-12-24T17:37:26;100372.22;;;4.21;100.00
71299;BME280;59083;47.974;21.722;2022-12-24T17:40:28;100376.50;;;4.22;100.00
71299;BME280;59083;47.974;21.722;2022-12-24T17:43:29;100373.84;;;4.22;100.00
71299;BME280;59083;47.974;21.722;2022-12-24T17:46:32;100372.50;;;4.18;100.00